Terminal Aerodrome Forecast
Issued by NWS Charleston, WV

Home | Current Version | Previous Version | Text Only | Print | Product List | Glossary On
Versions: 1 2 3 4 5 6 7 8 9 10 11 12 13 14 15 16 17 18 19 20 21 22 23 24 25 26 27
000
FTUS41 KRLX 251700 RRA
TAFBKW
TAF
KBKW 251745Z 2518/2618 28010G18KT P6SM OVC015
     FM252100 28008G13KT P6SM BKN025
     FM252300 27006KT P6SM BKN030
     FM260200 27005KT P6SM SCT035
     FM260400 21002KT P6SM SKC
     FM261400 24005KT P6SM SKC=

USA.gov is the U.S. government's official web portal to all federal, state and local government web resources and services.